Time;durP1;ratioP1;P1;durP2;ratioP2;P2;SDS_P1;SDS_P2;PMS_P1;PMS_P2;Temp;Humidity;BMP_temperature;BMP_pressure;BME280_temperature;BME280_humidity;BME280_pressure;Samples;Min_cycle;Max_cycle;Signal;HPM_P1;HPM_P2
2021/10/26 00:01:31;;;;;;;22.20;10.40;;;;;;;9.52;92.10;101859.69;5030288;28;20516;-65
2021/10/26 00:03:56;;;;;;;18.97;10.80;;;;;;;9.52;92.06;101857.00;5030038;28;20037;-65
2021/10/26 00:06:22;;;;;;;19.53;10.27;;;;;;;9.56;92.06;101861.13;5029577;28;20022;-64
2021/10/26 00:08:47;;;;;;;21.15;10.07;;;;;;;9.56;91.85;101862.91;5030105;28;20026;-65
2021/10/26 00:11:12;;;;;;;16.43;10.80;;;;;;;9.56;92.02;101863.78;5030371;28;20393;-65
2021/10/26 00:13:38;;;;;;;17.30;10.30;;;;;;;9.59;91.82;101868.84;5029852;28;20028;-65
2021/10/26 00:16:05;;;;;;;18.15;10.48;;;;;;;9.63;91.81;101867.66;5030228;28;20044;-65
2021/10/26 00:18:30;;;;;;;19.48;10.65;;;;;;;9.69;91.85;101868.13;5030421;28;20025;-65
2021/10/26 00:20:56;;;;;;;21.60;9.50;;;;;;;9.69;91.77;101865.47;5030280;28;20033;-64
2021/10/26 00:23:21;;;;;;;16.43;9.13;;;;;;;9.69;92.37;101874.31;5030072;28;20113;-64
2021/10/26 00:25:46;;;;;;;12.73;8.13;;;;;;;9.70;91.84;101869.84;5031403;28;20049;-64
2021/10/26 00:28:12;;;;;;;16.33;9.47;;;;;;;9.70;91.80;101864.53;5033959;28;20030;-65
2021/10/26 00:30:37;;;;;;;14.33;7.97;;;;;;;9.66;91.91;101861.25;5034009;28;20481;-64
2021/10/26 00:33:02;;;;;;;18.87;9.53;;;;;;;9.63;91.85;101870.31;5033919;28;20029;-64
2021/10/26 00:35:28;;;;;;;14.40;8.77;;;;;;;9.62;91.80;101870.44;5033897;28;20029;-66
2021/10/26 00:37:55;;;;;;;14.30;8.82;;;;;;;9.57;91.96;101872.59;5033619;28;20026;-64
2021/10/26 00:40:21;;;;;;;15.40;9.07;;;;;;;9.53;91.92;101877.31;5033849;28;20026;-64
2021/10/26 00:42:47;;;;;;;13.98;8.98;;;;;;;9.49;91.91;101878.53;5034084;28;20152;-64
2021/10/26 00:45:12;;;;;;;19.30;8.63;;;;;;;9.45;91.98;101879.72;5033508;28;20021;-65
2021/10/26 00:47:37;;;;;;;13.87;8.17;;;;;;;9.41;92.03;101886.25;5033634;28;20277;-64
2021/10/26 00:50:05;;;;;;;17.27;8.53;;;;;;;9.38;92.11;101883.84;5033569;28;20026;-64
2021/10/26 00:52:30;;;;;;;15.35;7.65;;;;;;;9.35;91.93;101887.59;5033590;28;20526;-64
2021/10/26 00:54:55;;;;;;;16.23;7.17;;;;;;;9.29;91.81;101880.91;5033257;28;20026;-64
2021/10/26 00:57:25;;;;;;;16.23;7.97;;;;;;;9.28;92.07;101883.69;5033473;28;20151;-64
2021/10/26 00:59:51;;;;;;;15.05;7.50;;;;;;;9.25;91.80;101887.44;5033317;28;20051;-64
2021/10/26 01:02:16;;;;;;;15.93;8.30;;;;;;;9.21;91.92;101888.63;5033578;28;20465;-66
2021/10/26 01:04:42;;;;;;;15.35;8.00;;;;;;;9.14;91.94;101893.56;5033363;28;20528;-64
2021/10/26 01:07:08;;;;;;;18.65;8.27;;;;;;;9.09;91.85;101882.44;5033346;28;20028;-67
2021/10/26 01:09:33;;;;;;;25.30;9.18;;;;;;;9.08;92.22;101886.06;5015515;28;20025;-66
2021/10/26 01:11:59;;;;;;;19.90;8.03;;;;;;;9.04;92.38;101886.41;5033347;28;20032;-64
2021/10/26 01:14:24;;;;;;;20.60;8.43;;;;;;;8.99;92.38;101892.06;5033379;28;20080;-64
2021/10/26 01:16:50;;;;;;;16.63;7.30;;;;;;;8.92;92.41;101886.34;5032969;28;20033;-67
2021/10/26 01:19:15;;;;;;;16.60;8.17;;;;;;;8.87;92.27;101893.00;5033148;28;20029;-66
2021/10/26 01:21:41;;;;;;;15.07;8.13;;;;;;;8.83;92.41;101884.41;5033177;28;20075;-66
2021/10/26 01:24:07;;;;;;;15.02;7.05;;;;;;;8.83;92.48;101887.06;5032830;28;20033;-66
2021/10/26 01:26:33;;;;;;;18.77;8.18;;;;;;;8.76;92.37;101886.66;5032722;28;20056;-67
2021/10/26 01:28:59;;;;;;;17.50;7.97;;;;;;;8.71;92.33;101891.47;5033297;28;20101;-66
2021/10/26 01:31:24;;;;;;;13.45;7.82;;;;;;;8.74;92.71;101891.22;5032804;28;20048;-66
2021/10/26 01:33:50;;;;;;;18.70;8.40;;;;;;;8.74;92.74;101891.22;5032899;28;20021;-66
2021/10/26 01:36:19;;;;;;;15.00;8.30;;;;;;;8.74;92.76;101885.06;5014295;28;20029;-66
2021/10/26 01:38:44;;;;;;;19.95;7.80;;;;;;;8.74;92.79;101888.56;5032347;28;20025;-66
2021/10/26 01:41:09;;;;;;;13.55;6.85;;;;;;;8.73;92.89;101883.38;5032592;28;20048;-66
2021/10/26 01:43:35;;;;;;;14.53;8.03;;;;;;;8.65;92.70;101886.59;5032826;28;20067;-64
2021/10/26 01:46:00;;;;;;;20.43;7.70;;;;;;;8.63;93.00;101891.19;5032500;28;20064;-65
2021/10/26 01:48:27;;;;;;;17.87;7.67;;;;;;;8.66;92.99;101890.13;5014086;28;20160;-64
2021/10/26 01:50:53;;;;;;;22.17;8.30;;;;;;;8.63;93.07;101889.38;5031929;28;20280;-64
2021/10/26 01:53:18;;;;;;;15.07;7.70;;;;;;;8.62;93.12;101892.97;5032246;28;20017;-64
2021/10/26 01:55:44;;;;;;;14.43;7.23;;;;;;;8.58;92.95;101896.84;5030693;28;20508;-64
2021/10/26 01:58:09;;;;;;;16.57;7.10;;;;;;;8.57;93.25;101894.28;5032380;28;20503;-64
2021/10/26 02:00:35;;;;;;;20.10;9.48;;;;;;;8.55;92.98;101901.50;5032222;28;20070;-64
2021/10/26 02:03:00;;;;;;;16.47;7.23;;;;;;;8.48;93.12;101898.47;5032223;28;20058;-64
2021/10/26 02:05:26;;;;;;;18.40;7.83;;;;;;;8.43;93.09;101904.09;5032253;28;20029;-64
2021/10/26 02:07:51;;;;;;;17.73;7.25;;;;;;;8.38;92.94;101900.06;5032165;28;20036;-64
2021/10/26 02:10:17;;;;;;;13.17;6.30;;;;;;;8.33;93.02;101897.75;5031347;28;20025;-65
2021/10/26 02:12:43;;;;;;;20.15;8.75;;;;;;;8.33;92.93;101896.91;5030863;28;20040;-65
2021/10/26 02:15:08;;;;;;;17.73;8.10;;;;;;;8.34;93.11;101899.44;5031784;28;20026;-65
2021/10/26 02:17:34;;;;;;;21.55;9.25;;;;;;;8.32;93.10;101896.03;5031710;28;20333;-64
2021/10/26 02:20:00;;;;;;;15.43;7.37;;;;;;;8.31;93.14;101895.22;5031912;28;20032;-65
2021/10/26 02:22:25;;;;;;;19.77;8.13;;;;;;;8.31;93.05;101897.88;5032013;28;20300;-65
2021/10/26 02:24:51;;;;;;;18.83;7.97;;;;;;;8.29;93.05;101902.41;5031704;28;20032;-64
2021/10/26 02:27:16;;;;;;;14.23;7.30;;;;;;;8.30;93.06;101909.44;5031541;28;20125;-65
2021/10/26 02:29:42;;;;;;;18.27;8.57;;;;;;;8.34;93.24;101909.22;5032001;28;20022;-65
2021/10/26 02:32:07;;;;;;;21.38;9.60;;;;;;;8.39;93.27;101909.72;5031612;28;20574;-65
2021/10/26 02:34:33;;;;;;;20.73;8.70;;;;;;;8.36;93.16;101910.78;5031603;28;20041;-65
2021/10/26 02:36:58;;;;;;;13.65;7.88;;;;;;;8.33;93.17;101908.38;5031640;28;20083;-65
2021/10/26 02:39:24;;;;;;;22.10;8.87;;;;;;;8.31;93.37;101921.75;5031466;28;20034;-64
2021/10/26 02:41:50;;;;;;;20.55;8.35;;;;;;;8.31;93.19;101911.16;5031396;28;20521;-65
2021/10/26 02:44:16;;;;;;;22.42;7.93;;;;;;;8.29;93.38;101914.88;5031602;28;20024;-64
2021/10/26 02:46:41;;;;;;;19.37;7.63;;;;;;;8.27;93.09;101919.44;5030141;28;20025;-65
2021/10/26 02:49:07;;;;;;;23.90;8.93;;;;;;;8.29;92.90;101918.34;5030960;28;20299;-65
2021/10/26 02:51:32;;;;;;;18.77;7.57;;;;;;;8.28;92.76;101921.13;5031193;28;20370;-65
2021/10/26 02:53:58;;;;;;;18.63;8.43;;;;;;;8.22;92.97;101924.22;5031480;28;20026;-65
2021/10/26 02:56:23;;;;;;;22.67;8.07;;;;;;;8.21;92.99;101922.50;5031016;28;20044;-65
2021/10/26 02:58:48;;;;;;;14.20;6.90;;;;;;;8.17;93.14;101927.22;5031015;28;20100;-65
2021/10/26 03:01:15;;;;;;;20.20;8.45;;;;;;;8.16;93.02;101916.72;5030965;28;20512;-65
2021/10/26 03:03:40;;;;;;;;;;;;;;;8.21;92.95;101931.34;5031465;28;20032;-65
2021/10/26 03:06:05;;;;;;;16.42;6.53;;;;;;;8.26;93.12;101921.25;5031043;28;19913;-65
2021/10/26 03:08:31;;;;;;;15.83;6.57;;;;;;;8.27;93.10;101917.63;5031141;28;20040;-65
2021/10/26 03:10:57;;;;;;;17.15;7.47;;;;;;;8.26;93.24;101913.28;5013334;28;20041;-65
2021/10/26 03:13:22;;;;;;;12.87;7.03;;;;;;;8.18;93.15;101909.47;5030303;28;20056;-65
2021/10/26 03:15:47;;;;;;;18.23;7.70;;;;;;;8.10;93.20;101917.97;5030444;28;20018;-65
2021/10/26 03:18:13;;;;;;;17.57;7.63;;;;;;;8.04;93.01;101907.81;5030576;28;20096;-65
2021/10/26 03:20:39;;;;;;;16.50;6.43;;;;;;;8.00;92.97;101906.31;5030661;28;20472;-65
2021/10/26 03:23:06;;;;;;;22.80;7.17;;;;;;;8.02;93.11;101907.91;5030609;28;20469;-65
2021/10/26 03:25:32;;;;;;;15.35;7.20;;;;;;;8.12;93.31;101921.38;5049966;22;20183;-69
2021/10/26 03:28:00;;;;;;;18.35;7.10;;;;;;;8.18;93.50;101909.47;5050733;28;20116;-70
2021/10/26 03:30:26;;;;;;;19.67;6.72;;;;;;;8.22;93.38;101908.28;5050464;28;20090;-70
2021/10/26 03:32:52;;;;;;;14.05;6.20;;;;;;;8.22;93.19;101916.25;5050633;28;20501;-69
2021/10/26 03:35:18;;;;;;;17.48;7.45;;;;;;;8.18;93.38;101915.63;5050214;28;20052;-69
2021/10/26 03:37:44;;;;;;;15.63;6.40;;;;;;;8.13;93.51;101910.66;5032611;28;20029;-67
2021/10/26 03:40:10;;;;;;;;;;;;;;;8.11;93.38;101915.19;5050956;28;20578;-68
2021/10/26 03:42:36;;;;;;;12.02;5.95;;;;;;;8.08;93.41;101915.44;5050460;28;20391;-68
2021/10/26 03:45:02;;;;;;;15.37;6.63;;;;;;;8.06;93.53;101921.81;5050630;28;20060;-68
2021/10/26 03:47:28;;;;;;;17.02;5.93;;;;;;;8.07;93.35;101923.50;5050492;28;20119;-69
2021/10/26 03:49:53;;;;;;;15.40;6.20;;;;;;;8.05;93.67;101918.31;5050157;28;20155;-68
2021/10/26 03:52:18;;;;;;;17.13;6.47;;;;;;;8.03;93.39;101922.88;5050361;28;20029;-69
2021/10/26 03:54:44;;;;;;;15.90;6.27;;;;;;;8.01;93.37;101929.25;5050153;28;20040;-70
2021/10/26 03:57:12;;;;;;;16.95;7.20;;;;;;;8.04;93.55;101926.41;5050119;28;20472;-69
2021/10/26 03:59:39;;;;;;;19.83;8.07;;;;;;;8.03;93.48;101932.66;5050126;28;20468;-68
2021/10/26 04:02:17;;;;;;;19.05;8.80;;;;;;;8.04;93.58;101934.34;5054198;28;20381;-68
2021/10/26 04:04:42;;;;;;;22.77;8.23;;;;;;;8.09;93.45;101929.53;5054250;28;20180;-69
2021/10/26 04:07:09;;;;;;;17.83;7.97;;;;;;;8.15;93.64;101937.09;5054205;28;20036;-70
2021/10/26 04:12:25;;;;;;;23.52;8.77;;;;;;;8.09;93.54;101943.69;5053966;28;20170;-70
2021/10/26 04:14:55;;;;;;;15.70;7.80;;;;;;;8.07;93.58;101939.44;5054062;28;20481;-69
2021/10/26 04:17:26;;;;;;;23.07;8.77;;;;;;;8.07;93.43;101945.59;5053953;28;20036;-68
2021/10/26 04:19:54;;;;;;;20.38;8.43;;;;;;;8.06;93.60;101941.22;5053829;28;20041;-68
2021/10/26 04:22:21;;;;;;;18.93;9.30;;;;;;;8.03;93.55;101943.28;5053677;28;20033;-70
2021/10/26 04:24:47;;;;;;;23.23;9.40;;;;;;;8.08;93.60;101949.09;5053776;28;20021;-69
2021/10/26 04:27:12;;;;;;;24.58;10.88;;;;;;;8.08;93.56;101949.09;5053621;28;20056;-70
2021/10/26 04:29:39;;;;;;;23.42;9.25;;;;;;;8.13;93.83;101939.00;5053831;28;20029;-70
2021/10/26 04:32:06;;;;;;;19.07;8.53;;;;;;;8.15;93.63;101942.41;5053830;28;20419;-69
2021/10/26 04:34:32;;;;;;;22.20;8.97;;;;;;;8.17;93.70;101951.13;5053621;28;20017;-69
2021/10/26 04:36:57;;;;;;;20.73;10.20;;;;;;;8.16;93.62;101959.19;5053444;28;20053;-68
2021/10/26 04:39:22;;;;;;;25.00;9.80;;;;;;;8.11;93.64;101957.69;5053485;28;20283;-69
2021/10/26 04:41:48;;;;;;;17.33;9.07;;;;;;;8.11;93.61;101955.03;5053484;28;20124;-67
2021/10/26 04:44:13;;;;;;;16.75;8.45;;;;;;;8.09;93.76;101953.44;5053451;28;20029;-69
2021/10/26 04:46:39;;;;;;;16.90;8.83;;;;;;;8.04;93.58;101950.28;5053446;28;20441;-70
2021/10/26 04:49:04;;;;;;;22.13;10.20;;;;;;;8.06;93.74;101951.84;5053387;28;20028;-67
2021/10/26 04:51:29;;;;;;;21.57;9.83;;;;;;;8.08;93.80;101954.41;5053263;28;20025;-68
2021/10/26 04:53:55;;;;;;;24.10;10.30;;;;;;;8.07;93.75;101958.03;5053060;28;20453;-69
2021/10/26 04:56:20;;;;;;;23.80;10.27;;;;;;;8.07;93.83;101961.50;5052883;28;20033;-68
2021/10/26 04:58:45;;;;;;;22.93;10.47;;;;;;;8.11;93.85;101968.31;5053300;28;20029;-69
2021/10/26 05:01:10;;;;;;;24.30;10.33;;;;;;;8.11;93.64;101973.63;5053230;28;20025;-68
2021/10/26 05:03:36;;;;;;;25.07;11.40;;;;;;;8.08;93.86;101971.19;5053168;28;20461;-69
2021/10/26 05:06:04;;;;;;;21.50;11.00;;;;;;;8.01;93.75;101977.91;5053140;28;20052;-69
2021/10/26 05:08:30;;;;;;;23.47;9.87;;;;;;;7.98;93.76;101975.44;5034783;28;20029;-69
2021/10/26 05:10:56;;;;;;;27.45;10.77;;;;;;;7.94;93.83;101976.59;5052714;28;20057;-69
2021/10/26 05:13:21;;;;;;;23.00;10.43;;;;;;;7.94;93.85;101973.94;5052826;28;20444;-70
2021/10/26 05:15:47;;;;;;;28.60;9.53;;;;;;;7.89;93.86;101971.63;5052920;28;20032;-69
2021/10/26 05:18:13;;;;;;;26.45;11.05;;;;;;;7.86;93.54;101974.47;5052720;28;20051;-69
2021/10/26 05:20:39;;;;;;;16.73;8.23;;;;;;;7.84;93.82;101987.03;5052754;28;20108;-68
2021/10/26 05:23:06;;;;;;;26.88;10.55;;;;;;;7.83;93.88;101985.31;5052529;28;20028;-69
2021/10/26 05:25:32;;;;;;;19.93;10.67;;;;;;;7.87;93.80;101992.09;5052332;28;20076;-69
2021/10/26 05:27:57;;;;;;;22.25;10.10;;;;;;;7.87;93.88;101997.41;5051900;28;20432;-69
2021/10/26 05:30:23;;;;;;;26.10;11.20;;;;;;;7.86;93.69;102000.19;5052737;28;20028;-69
2021/10/26 05:32:48;;;;;;;27.48;14.38;;;;;;;7.89;93.88;101998.19;5052877;28;20025;-69
2021/10/26 05:35:13;;;;;;;32.53;11.87;;;;;;;7.87;93.96;102008.03;5052640;28;20036;-69
2021/10/26 05:37:39;;;;;;;33.77;15.37;;;;;;;7.85;93.77;102004.63;5052323;28;20029;-71
2021/10/26 05:40:06;;;;;;;23.33;12.10;;;;;;;7.88;93.89;102004.44;5034511;28;20029;-70
2021/10/26 05:42:31;;;;;;;28.25;13.25;;;;;;;7.90;94.11;102013.13;5052465;28;20483;-69
2021/10/26 05:44:56;;;;;;;34.83;14.03;;;;;;;7.93;94.08;102002.31;5052578;28;20037;-68
2021/10/26 05:47:22;;;;;;;33.03;14.47;;;;;;;7.96;93.96;102015.38;5052461;28;20028;-68
2021/10/26 05:49:49;;;;;;;31.67;13.73;;;;;;;7.94;94.02;102017.25;5050947;28;20528;-65
2021/10/26 05:52:14;;;;;;;27.33;12.20;;;;;;;7.91;93.99;102014.81;5052178;28;20053;-64
2021/10/26 05:54:39;;;;;;;34.95;14.95;;;;;;;7.90;94.16;102005.16;5051795;28;20061;-68
2021/10/26 05:57:05;;;;;;;35.23;14.80;;;;;;;7.89;94.12;102005.28;5051883;28;20028;-66
2021/10/26 05:59:30;;;;;;;30.07;14.77;;;;;;;7.88;94.06;102008.88;5052463;28;20035;-68
2021/10/26 06:01:55;;;;;;;28.60;13.23;;;;;;;7.89;94.25;101994.66;5052046;28;20108;-65
2021/10/26 06:04:21;;;;;;;30.52;16.00;;;;;;;7.85;94.14;101999.31;5052013;28;20767;-68
2021/10/26 06:06:46;;;;;;;37.17;15.37;;;;;;;7.87;94.16;101994.75;5052019;28;20025;-68
2021/10/26 06:09:15;;;;;;;28.03;13.73;;;;;;;7.91;94.28;101988.28;5051777;28;20083;-67
2021/10/26 06:11:40;;;;;;;27.10;13.43;;;;;;;7.88;94.18;101995.59;5051849;28;20017;-70
2021/10/26 06:14:08;;;;;;;26.33;12.73;;;;;;;7.87;94.07;101997.41;5051752;28;20021;-68
2021/10/26 06:16:36;;;;;;;32.97;14.10;;;;;;;7.86;94.16;102000.19;5051741;28;20025;-65
2021/10/26 06:19:01;;;;;;;32.72;14.20;;;;;;;7.84;94.12;101992.34;5051773;28;20032;-68
2021/10/26 06:21:27;;;;;;;29.43;14.37;;;;;;;7.85;94.13;101990.50;5051681;28;20021;-67
2021/10/26 06:23:53;;;;;;;;;;;;;;;7.84;94.11;102002.06;5051330;28;20461;-69
2021/10/26 06:26:19;;;;;;;31.03;12.10;;;;;;;7.78;94.14;102004.19;5050917;28;19917;-67
2021/10/26 06:28:45;;;;;;;25.65;10.85;;;;;;;7.73;93.97;102010.78;5051400;28;20500;-67
2021/10/26 06:31:10;;;;;;;26.87;11.60;;;;;;;7.67;94.00;102011.19;5051541;28;20025;-67
2021/10/26 06:33:35;;;;;;;22.87;9.83;;;;;;;7.70;94.01;102005.69;5051307;28;20485;-65
2021/10/26 06:36:01;;;;;;;30.73;12.37;;;;;;;7.70;94.26;102008.34;5033406;28;20056;-65
2021/10/26 06:38:26;;;;;;;28.80;12.17;;;;;;;7.65;94.00;102014.78;5051501;28;20029;-68
2021/10/26 06:40:52;;;;;;;22.93;11.00;;;;;;;7.67;93.96;102024.44;5050976;28;20476;-68
2021/10/26 06:43:17;;;;;;;26.58;13.13;;;;;;;7.69;94.06;102025.22;5051077;28;20075;-66
2021/10/26 06:45:42;;;;;;;23.93;11.47;;;;;;;7.69;94.03;102028.69;5051169;28;20075;-67
2021/10/26 06:48:08;;;;;;;22.70;11.03;;;;;;;7.70;94.20;102024.25;5051131;28;20021;-65
2021/10/26 06:50:33;;;;;;;19.43;11.43;;;;;;;7.73;94.13;102022.22;5051039;28;20029;-67
2021/10/26 06:52:59;;;;;;;16.00;10.33;;;;;;;7.79;94.20;102026.28;5033255;28;20060;-69
2021/10/26 06:55:24;;;;;;;21.58;11.23;;;;;;;7.85;94.01;102031.16;5050561;28;20033;-69
2021/10/26 06:57:50;;;;;;;22.45;11.88;;;;;;;7.91;93.98;102030.75;5050890;28;20473;-68
2021/10/26 07:00:17;;;;;;;22.52;10.93;;;;;;;7.98;94.08;102032.03;5050580;28;20489;-68
2021/10/26 07:02:53;;;;;;;21.83;11.57;;;;;;;8.07;94.23;102035.03;5050336;28;20476;-68
2021/10/26 07:05:24;;;;;;;21.10;10.63;;;;;;;8.14;94.09;102030.97;5032849;28;20104;-66
2021/10/26 07:07:51;;;;;;;22.75;11.35;;;;;;;8.24;94.05;102031.19;5050698;28;20028;-67
2021/10/26 07:10:18;;;;;;;21.85;11.20;;;;;;;8.27;94.08;102041.59;5050746;28;20088;-65
2021/10/26 07:12:43;;;;;;;21.33;10.80;;;;;;;8.33;93.80;102035.03;5050552;28;20025;-66
2021/10/26 07:15:10;;;;;;;19.80;10.47;;;;;;;8.38;93.84;102033.72;5050742;28;20086;-66
2021/10/26 07:17:36;;;;;;;18.40;9.95;;;;;;;8.47;93.61;102038.44;5050563;28;20036;-66
2021/10/26 07:20:06;;;;;;;;;;;;;;;8.55;93.83;102037.88;5051189;28;20025;-65
2021/10/26 07:22:32;;;;;;;17.45;10.05;;;;;;;8.58;93.56;102036.81;5050736;28;19912;-65
2021/10/26 07:27:27;;;;;;;15.65;9.10;;;;;;;8.75;93.63;102051.56;5048975;28;20045;-67
2021/10/26 07:29:53;;;;;;;16.50;9.90;;;;;;;8.79;93.50;102058.34;5050880;28;20025;-64
2021/10/26 07:32:20;;;;;;;17.90;9.40;;;;;;;8.91;93.52;102062.78;5050648;28;20023;-65
2021/10/26 07:34:45;;;;;;;17.73;9.45;;;;;;;9.05;93.52;102072.44;5049793;28;20072;-65
2021/10/26 07:37:12;;;;;;;12.55;8.27;;;;;;;9.19;93.46;102066.09;5032508;28;20452;-65
2021/10/26 07:39:47;;;;;;;;;;;;;;;9.15;93.01;102059.28;5050988;28;20020;-66
2021/10/26 07:42:17;;;;;;;13.25;9.05;;;;;;;9.17;92.91;102069.84;5050210;28;19912;-64
2021/10/26 07:44:43;;;;;;;15.02;9.52;;;;;;;9.21;92.83;102071.31;5050376;28;20490;-68
2021/10/26 07:47:09;;;;;;;14.35;8.43;;;;;;;9.23;92.90;102078.22;5050196;28;20022;-67
2021/10/26 07:49:34;;;;;;;14.37;8.60;;;;;;;9.21;92.79;102069.50;5050334;28;20116;-65
2021/10/26 07:52:01;;;;;;;14.23;8.63;;;;;;;9.17;92.50;102065.38;5050470;28;20291;-66
2021/10/26 07:54:26;;;;;;;15.77;8.30;;;;;;;9.18;92.43;102069.72;5050271;28;20727;-67
2021/10/26 07:56:52;;;;;;;14.00;8.00;;;;;;;9.18;92.30;102066.19;5049770;28;20101;-66
2021/10/26 07:59:18;;;;;;;12.57;7.82;;;;;;;9.23;91.93;102056.06;5050273;28;20033;-65
2021/10/26 08:01:47;;;;;;;11.70;7.80;;;;;;;9.27;91.88;102065.53;5050254;28;20170;-66
2021/10/26 08:04:14;;;;;;;12.23;7.30;;;;;;;9.28;91.77;102062.78;5050088;28;20021;-66
2021/10/26 08:06:44;;;;;;;14.18;7.00;;;;;;;9.35;91.80;102059.63;5050262;28;20036;-65
2021/10/26 08:09:10;;;;;;;15.77;7.38;;;;;;;9.40;91.71;102057.50;5050178;28;20037;-65
2021/10/26 08:11:36;;;;;;;14.60;7.00;;;;;;;9.46;91.67;102060.53;5050129;28;20436;-66
2021/10/26 08:14:05;;;;;;;13.68;6.55;;;;;;;9.57;91.66;102067.75;5050233;28;20335;-65
2021/10/26 08:16:31;;;;;;;11.45;6.60;;;;;;;9.75;92.08;102076.13;5050190;28;20100;-66
2021/10/26 08:18:58;;;;;;;11.63;6.32;;;;;;;9.81;91.53;102077.50;5050178;28;20163;-67
2021/10/26 08:21:24;;;;;;;10.75;5.80;;;;;;;9.91;91.46;102078.47;5049918;28;20096;-65
2021/10/26 08:23:50;;;;;;;13.05;6.50;;;;;;;9.99;90.99;102077.06;5050017;28;20120;-65
2021/10/26 08:26:26;;;;;;;10.50;5.82;;;;;;;10.07;90.69;102074.66;5049435;28;20489;-67
2021/10/26 08:28:59;;;;;;;7.80;5.78;;;;;;;10.16;90.37;102071.28;5049929;28;20020;-64
2021/10/26 08:31:32;;;;;;;8.57;5.40;;;;;;;10.23;89.88;102064.53;5049889;28;20017;-67
2021/10/26 08:34:17;;;;;;;8.45;5.60;;;;;;;10.29;89.44;102066.69;5050011;28;20033;-64
2021/10/26 08:36:44;;;;;;;12.07;6.28;;;;;;;10.37;88.97;102067.94;5031702;28;20420;-64
2021/10/26 08:39:11;;;;;;;9.48;5.00;;;;;;;10.36;87.87;102072.44;5050076;28;20126;-64
2021/10/26 08:41:43;;;;;;;8.15;5.22;;;;;;;10.40;88.14;102067.69;5049894;28;20040;-65
2021/10/26 08:44:08;;;;;;;13.05;5.63;;;;;;;10.42;88.01;102073.78;5049354;28;20024;-68
2021/10/26 08:46:34;;;;;;;8.07;5.07;;;;;;;10.51;87.36;102065.06;5051482;28;20354;-65
2021/10/26 08:49:00;;;;;;;7.28;5.07;;;;;;;10.56;86.82;102064.69;5054258;28;20029;-66
2021/10/26 08:51:26;;;;;;;15.50;5.60;;;;;;;10.64;87.07;102064.94;5051924;28;20377;-68
2021/10/26 08:53:54;;;;;;;;;;;;;;;10.61;87.06;102062.50;5053981;28;20044;-67
2021/10/26 08:56:21;;;;;;;9.93;5.00;;;;;;;10.54;86.51;102062.13;5053486;28;19925;-68
2021/10/26 08:58:46;;;;;;;8.48;5.60;;;;;;;10.60;86.78;102059.00;5053173;28;20032;-67
2021/10/26 09:01:12;;;;;;;9.60;5.40;;;;;;;10.67;86.81;102061.19;5035149;28;20108;-64
2021/10/26 09:03:39;;;;;;;9.63;5.38;;;;;;;10.67;86.33;102061.19;5053259;28;20129;-66
2021/10/26 09:06:06;;;;;;;9.40;6.20;;;;;;;10.73;86.33;102066.88;5053183;28;20021;-68
2021/10/26 09:08:32;;;;;;;10.30;5.43;;;;;;;10.80;86.25;102062.72;5053385;28;20021;-65
2021/10/26 09:11:04;;;;;;;8.35;5.55;;;;;;;10.85;85.90;102057.03;5053388;28;20055;-64
2021/10/26 09:16:41;;;;;;;11.25;5.72;;;;;;;11.02;85.81;102058.34;5052650;28;20116;-65
2021/10/26 09:19:19;;;;;;;8.93;5.72;;;;;;;11.01;85.05;102056.63;5053012;28;20161;-66
2021/10/26 09:21:59;;;;;;;8.20;5.57;;;;;;;11.09;84.84;102054.19;5052971;28;20091;-67
2021/10/26 09:24:25;;;;;;;9.73;5.68;;;;;;;11.09;84.70;102064.00;5052919;28;20051;-68
2021/10/26 09:26:54;;;;;;;8.77;5.65;;;;;;;11.15;85.47;102073.34;5052533;28;20416;-69
2021/10/26 09:29:28;;;;;;;12.93;5.97;;;;;;;11.15;84.97;102071.53;5052671;28;20487;-64
2021/10/26 09:32:03;;;;;;;13.23;6.10;;;;;;;11.09;85.12;102080.03;5052543;28;20029;-67
2021/10/26 09:34:39;;;;;;;9.68;6.07;;;;;;;11.04;85.77;102083.06;5052615;28;20423;-64
2021/10/26 09:37:04;;;;;;;11.68;6.70;;;;;;;11.10;85.97;102084.41;5052547;28;20532;-64
2021/10/26 09:39:30;;;;;;;9.52;6.50;;;;;;;11.08;85.83;102087.19;5052630;28;20116;-66
2021/10/26 09:42:03;;;;;;;9.48;6.10;;;;;;;10.95;85.95;102087.31;5052385;28;20028;-65
2021/10/26 09:44:40;;;;;;;9.32;6.82;;;;;;;10.90;86.89;102081.50;5052707;28;20029;-70
2021/10/26 09:47:10;;;;;;;10.82;7.60;;;;;;;10.83;86.95;102071.47;5052331;28;20056;-74
2021/10/26 09:49:38;;;;;;;9.63;6.80;;;;;;;10.83;87.23;102082.97;5052539;28;20033;-73
2021/10/26 09:52:15;;;;;;;12.05;7.70;;;;;;;10.72;87.25;102070.50;5052482;28;20021;-78
2021/10/26 09:54:41;;;;;;;10.18;7.57;;;;;;;10.78;87.36;102062.00;5052365;28;20030;-77
2021/10/26 09:57:09;;;;;;;12.85;7.07;;;;;;;10.85;87.57;102072.16;5051952;28;20226;-74
2021/10/26 09:59:36;;;;;;;11.07;7.38;;;;;;;10.94;87.72;102068.78;5051846;28;20099;-75
2021/10/26 10:02:02;;;;;;;9.15;6.72;;;;;;;11.02;87.37;102060.13;5052100;28;20029;-74
2021/10/26 10:04:32;;;;;;;10.40;6.50;;;;;;;11.08;86.90;102052.50;5052303;28;20067;-74
2021/10/26 10:06:59;;;;;;;7.82;6.32;;;;;;;11.20;86.87;102055.13;5034163;28;20275;-73
2021/10/26 10:09:25;;;;;;;7.53;6.15;;;;;;;11.29;86.41;102052.56;5052201;28;20052;-76
2021/10/26 10:12:19;;;;;;;7.82;5.82;;;;;;;11.50;85.88;102051.75;5051826;28;20068;-75
2021/10/26 10:14:49;;;;;;;10.18;6.20;;;;;;;11.53;84.76;102046.16;5049455;28;20056;-74
2021/10/26 10:17:15;;;;;;;7.10;5.40;;;;;;;11.70;84.73;102043.88;5051620;28;20025;-76
2021/10/26 10:19:40;;;;;;;9.93;6.10;;;;;;;11.70;84.14;102038.53;5051821;28;20054;-76
2021/10/26 10:22:07;;;;;;;9.90;5.83;;;;;;;11.85;84.51;102052.44;5033695;28;20029;-75
2021/10/26 10:24:38;;;;;;;10.20;6.00;;;;;;;11.96;84.08;102052.38;5051777;28;20626;-73
2021/10/26 10:27:05;;;;;;;7.72;5.32;;;;;;;12.09;83.92;102039.66;5051208;28;20052;-66
2021/10/26 10:29:32;;;;;;;6.68;5.30;;;;;;;12.20;83.47;102040.56;5051701;28;20087;-68
2021/10/26 10:31:58;;;;;;;7.53;4.88;;;;;;;12.20;83.41;102051.25;5051550;28;20099;-68
2021/10/26 10:34:23;;;;;;;7.93;4.82;;;;;;;12.19;82.56;102050.41;5033431;28;20021;-65
2021/10/26 10:36:52;;;;;;;7.23;5.10;;;;;;;12.20;82.73;102053.94;5051417;28;20484;-64
2021/10/26 10:39:24;;;;;;;8.13;5.47;;;;;;;12.13;83.18;102053.63;5051292;28;20021;-65
2021/10/26 10:42:08;;;;;;;10.90;6.30;;;;;;;12.09;82.92;102050.34;5051277;28;20079;-64
2021/10/26 10:44:35;;;;;;;9.43;6.35;;;;;;;12.10;82.92;102054.72;5051120;28;20025;-64
2021/10/26 10:47:01;;;;;;;8.95;6.63;;;;;;;12.14;81.93;102049.97;5051069;28;20040;-65
2021/10/26 10:49:47;;;;;;;11.18;6.97;;;;;;;12.09;81.46;102044.16;5051124;28;20029;-66
2021/10/26 10:52:18;;;;;;;9.73;6.85;;;;;;;12.11;81.93;102051.06;5051003;28;20053;-71
2021/10/26 10:54:55;;;;;;;10.65;6.30;;;;;;;12.22;82.71;102042.13;5050874;28;20025;-72
2021/10/26 10:57:35;;;;;;;9.23;6.00;;;;;;;12.40;81.94;102033.50;5050924;28;20033;-71
2021/10/26 11:00:05;;;;;;;7.28;5.43;;;;;;;12.58;82.05;102049.75;5051177;28;20017;-70
2021/10/26 11:02:47;;;;;;;10.07;6.35;;;;;;;12.65;80.76;102052.72;5050644;28;20553;-65
2021/10/26 11:05:30;;;;;;;10.60;6.03;;;;;;;12.78;79.10;102053.34;5050879;28;20036;-65
2021/10/26 11:07:56;;;;;;;7.78;5.28;;;;;;;12.70;79.87;102055.81;5050627;28;20048;-66
2021/10/26 11:10:22;;;;;;;7.65;5.35;;;;;;;12.74;79.46;102050.09;5050482;28;20060;-68
2021/10/26 11:12:49;;;;;;;8.38;5.40;;;;;;;12.71;79.94;102046.84;5050937;28;20052;-66
2021/10/26 11:15:44;;;;;;;6.50;4.57;;;;;;;12.79;80.11;102053.19;5050745;28;20021;-65
2021/10/26 11:18:09;;;;;;;6.28;4.90;;;;;;;12.85;79.36;102048.28;5050265;28;20157;-66
2021/10/26 11:20:39;;;;;;;10.27;5.80;;;;;;;12.93;78.65;102048.44;5050431;28;20055;-64
2021/10/26 11:23:10;;;;;;;8.18;5.70;;;;;;;12.84;78.65;102046.59;5050445;28;20025;-67
2021/10/26 11:25:44;;;;;;;10.02;6.40;;;;;;;12.79;78.40;102044.31;5057945;23;20432;-64
2021/10/26 11:28:16;;;;;;;12.02;6.43;;;;;;;12.68;78.46;102045.28;5050603;28;20488;-65
2021/10/26 11:30:47;;;;;;;8.80;5.82;;;;;;;12.66;78.90;102041.91;5050538;28;20028;-67
2021/10/26 11:33:12;;;;;;;11.75;7.10;;;;;;;12.61;78.85;102047.66;5050450;28;20104;-67